sensor_id;sensor_type;location;lat;lon;timestamp;P1;durP1;ratioP1;P2;durP2;ratioP2
20870;SDS011;10595;51.218;3.452;2023-02-15T00:00:24;107.23;;;53.73;;
20870;SDS011;10595;51.218;3.452;2023-02-15T00:02:50;103.40;;;52.20;;
20870;SDS011;10595;51.218;3.452;2023-02-15T00:05:16;101.63;;;52.33;;
20870;SDS011;10595;51.218;3.452;2023-02-15T00:07:42;98.50;;;50.57;;
20870;SDS011;10595;51.218;3.452;2023-02-15T00:10:08;94.53;;;49.53;;
20870;SDS011;10595;51.218;3.452;2023-02-15T00:12:36;75.63;;;42.40;;
20870;SDS011;10595;51.218;3.452;2023-02-15T00:15:02;71.87;;;41.83;;
20870;SDS011;10595;51.218;3.452;2023-02-15T00:17:28;81.93;;;47.47;;
20870;SDS011;10595;51.218;3.452;2023-02-15T00:19:54;85.37;;;47.00;;
20870;SDS011;10595;51.218;3.452;2023-02-15T00:22:20;84.87;;;47.50;;
20870;SDS011;10595;51.218;3.452;2023-02-15T00:24:46;92.90;;;49.10;;
20870;SDS011;10595;51.218;3.452;2023-02-15T00:27:12;98.90;;;50.83;;
20870;SDS011;10595;51.218;3.452;2023-02-15T00:29:38;101.60;;;51.03;;
20870;SDS011;10595;51.218;3.452;2023-02-15T00:32:04;107.30;;;55.23;;
20870;SDS011;10595;51.218;3.452;2023-02-15T00:34:31;98.97;;;51.70;;
20870;SDS011;10595;51.218;3.452;2023-02-15T00:36:57;107.47;;;53.53;;
20870;SDS011;10595;51.218;3.452;2023-02-15T00:39:23;100.47;;;52.90;;
20870;SDS011;10595;51.218;3.452;2023-02-15T00:41:49;101.17;;;53.87;;
20870;SDS011;10595;51.218;3.452;2023-02-15T00:44:15;103.07;;;53.27;;
20870;SDS011;10595;51.218;3.452;2023-02-15T00:46:41;98.03;;;52.27;;
20870;SDS011;10595;51.218;3.452;2023-02-15T00:49:07;96.83;;;51.90;;
20870;SDS011;10595;51.218;3.452;2023-02-15T00:51:34;90.47;;;49.13;;
20870;SDS011;10595;51.218;3.452;2023-02-15T00:54:00;92.43;;;48.30;;
20870;SDS011;10595;51.218;3.452;2023-02-15T00:56:26;95.00;;;51.90;;
20870;SDS011;10595;51.218;3.452;2023-02-15T00:58:53;94.43;;;50.43;;
20870;SDS011;10595;51.218;3.452;2023-02-15T01:01:19;118.37;;;57.00;;
20870;SDS011;10595;51.218;3.452;2023-02-15T01:03:46;137.83;;;62.47;;
20870;SDS011;10595;51.218;3.452;2023-02-15T01:06:12;134.53;;;62.53;;
20870;SDS011;10595;51.218;3.452;2023-02-15T01:08:39;127.30;;;60.83;;
20870;SDS011;10595;51.218;3.452;2023-02-15T01:11:09;117.50;;;60.10;;
20870;SDS011;10595;51.218;3.452;2023-02-15T01:13:35;103.57;;;55.43;;
20870;SDS011;10595;51.218;3.452;2023-02-15T01:16:02;97.67;;;54.40;;
20870;SDS011;10595;51.218;3.452;2023-02-15T01:18:28;93.03;;;51.90;;
20870;SDS011;10595;51.218;3.452;2023-02-15T01:20:55;92.87;;;50.80;;
20870;SDS011;10595;51.218;3.452;2023-02-15T01:23:21;88.20;;;51.20;;
20870;SDS011;10595;51.218;3.452;2023-02-15T01:25:47;94.33;;;52.73;;
20870;SDS011;10595;51.218;3.452;2023-02-15T01:28:13;77.80;;;45.93;;
20870;SDS011;10595;51.218;3.452;2023-02-15T01:30:40;98.50;;;52.67;;
20870;SDS011;10595;51.218;3.452;2023-02-15T01:33:06;95.30;;;52.67;;
20870;SDS011;10595;51.218;3.452;2023-02-15T01:35:32;111.70;;;58.60;;
20870;SDS011;10595;51.218;3.452;2023-02-15T01:37:58;113.53;;;59.67;;
20870;SDS011;10595;51.218;3.452;2023-02-15T01:40:25;100.77;;;57.23;;
20870;SDS011;10595;51.218;3.452;2023-02-15T01:42:51;115.10;;;59.97;;
20870;SDS011;10595;51.218;3.452;2023-02-15T01:45:19;107.70;;;58.40;;
20870;SDS011;10595;51.218;3.452;2023-02-15T01:47:51;98.70;;;55.40;;
20870;SDS011;10595;51.218;3.452;2023-02-15T01:50:21;97.67;;;53.77;;
20870;SDS011;10595;51.218;3.452;2023-02-15T01:52:50;96.67;;;53.20;;
20870;SDS011;10595;51.218;3.452;2023-02-15T01:55:18;101.43;;;54.20;;
20870;SDS011;10595;51.218;3.452;2023-02-15T01:57:45;106.70;;;55.30;;
20870;SDS011;10595;51.218;3.452;2023-02-15T02:00:12;105.90;;;56.70;;
20870;SDS011;10595;51.218;3.452;2023-02-15T02:02:39;107.03;;;57.17;;
20870;SDS011;10595;51.218;3.452;2023-02-15T02:05:06;109.30;;;56.80;;
20870;SDS011;10595;51.218;3.452;2023-02-15T02:07:33;96.43;;;52.83;;
20870;SDS011;10595;51.218;3.452;2023-02-15T02:10:00;98.40;;;54.13;;
20870;SDS011;10595;51.218;3.452;2023-02-15T02:12:26;94.00;;;52.23;;
20870;SDS011;10595;51.218;3.452;2023-02-15T02:14:52;94.37;;;53.00;;
20870;SDS011;10595;51.218;3.452;2023-02-15T02:27:19;86.30;;;49.33;;
20870;SDS011;10595;51.218;3.452;2023-02-15T02:35:08;88.83;;;49.93;;
20870;SDS011;10595;51.218;3.452;2023-02-15T02:37:38;91.07;;;51.13;;
20870;SDS011;10595;51.218;3.452;2023-02-15T02:45:30;100.47;;;53.33;;
20870;SDS011;10595;51.218;3.452;2023-02-15T02:48:05;126.10;;;56.90;;
20870;SDS011;10595;51.218;3.452;2023-02-15T02:50:33;104.67;;;56.27;;
20870;SDS011;10595;51.218;3.452;2023-02-15T02:52:59;102.20;;;55.73;;
20870;SDS011;10595;51.218;3.452;2023-02-15T02:55:28;99.70;;;52.60;;
20870;SDS011;10595;51.218;3.452;2023-02-15T02:57:57;100.90;;;51.70;;
20870;SDS011;10595;51.218;3.452;2023-02-15T03:00:26;96.13;;;53.07;;
20870;SDS011;10595;51.218;3.452;2023-02-15T03:02:56;91.47;;;50.23;;
20870;SDS011;10595;51.218;3.452;2023-02-15T03:05:24;113.87;;;54.03;;
20870;SDS011;10595;51.218;3.452;2023-02-15T03:07:52;97.47;;;51.77;;
20870;SDS011;10595;51.218;3.452;2023-02-15T03:10:21;88.80;;;49.60;;
20870;SDS011;10595;51.218;3.452;2023-02-15T03:12:47;82.03;;;47.20;;
20870;SDS011;10595;51.218;3.452;2023-02-15T03:15:19;84.43;;;47.93;;
20870;SDS011;10595;51.218;3.452;2023-02-15T03:17:48;84.03;;;49.30;;
20870;SDS011;10595;51.218;3.452;2023-02-15T03:20:33;90.43;;;48.37;;
20870;SDS011;10595;51.218;3.452;2023-02-15T03:23:04;102.90;;;53.93;;
20870;SDS011;10595;51.218;3.452;2023-02-15T03:25:39;107.47;;;57.23;;
20870;SDS011;10595;51.218;3.452;2023-02-15T03:28:06;102.80;;;52.87;;
20870;SDS011;10595;51.218;3.452;2023-02-15T03:30:34;91.13;;;50.13;;
20870;SDS011;10595;51.218;3.452;2023-02-15T03:33:01;88.23;;;48.90;;
20870;SDS011;10595;51.218;3.452;2023-02-15T03:35:33;79.80;;;45.33;;
20870;SDS011;10595;51.218;3.452;2023-02-15T03:38:02;87.40;;;46.67;;
20870;SDS011;10595;51.218;3.452;2023-02-15T03:40:34;99.50;;;49.33;;
20870;SDS011;10595;51.218;3.452;2023-02-15T03:46:08;132.97;;;51.57;;
20870;SDS011;10595;51.218;3.452;2023-02-15T03:48:36;111.33;;;52.13;;
20870;SDS011;10595;51.218;3.452;2023-02-15T03:51:05;99.93;;;49.90;;
20870;SDS011;10595;51.218;3.452;2023-02-15T03:53:50;249.47;;;55.70;;
20870;SDS011;10595;51.218;3.452;2023-02-15T03:56:17;244.83;;;52.13;;
20870;SDS011;10595;51.218;3.452;2023-02-15T03:58:43;114.97;;;47.10;;
20870;SDS011;10595;51.218;3.452;2023-02-15T04:01:38;95.93;;;48.97;;
20870;SDS011;10595;51.218;3.452;2023-02-15T04:04:37;99.10;;;48.50;;
20870;SDS011;10595;51.218;3.452;2023-02-15T04:07:05;92.67;;;46.23;;
20870;SDS011;10595;51.218;3.452;2023-02-15T04:09:32;97.13;;;48.13;;
20870;SDS011;10595;51.218;3.452;2023-02-15T04:12:16;93.70;;;47.60;;
20870;SDS011;10595;51.218;3.452;2023-02-15T04:14:43;92.97;;;47.07;;
20870;SDS011;10595;51.218;3.452;2023-02-15T04:17:27;92.03;;;45.83;;
20870;SDS011;10595;51.218;3.452;2023-02-15T04:19:53;83.50;;;43.73;;
20870;SDS011;10595;51.218;3.452;2023-02-15T04:22:38;90.87;;;45.37;;
20870;SDS011;10595;51.218;3.452;2023-02-15T04:25:23;80.90;;;44.27;;
20870;SDS011;10595;51.218;3.452;2023-02-15T04:27:50;83.90;;;44.07;;
20870;SDS011;10595;51.218;3.452;2023-02-15T04:30:17;81.43;;;44.63;;
20870;SDS011;10595;51.218;3.452;2023-02-15T04:32:43;82.77;;;44.63;;
20870;SDS011;10595;51.218;3.452;2023-02-15T04:35:09;84.60;;;45.90;;
20870;SDS011;10595;51.218;3.452;2023-02-15T04:37:36;84.50;;;46.00;;
20870;SDS011;10595;51.218;3.452;2023-02-15T04:40:03;83.07;;;45.57;;
20870;SDS011;10595;51.218;3.452;2023-02-15T04:42:29;80.93;;;44.27;;
20870;SDS011;10595;51.218;3.452;2023-02-15T04:44:55;79.27;;;43.37;;
20870;SDS011;10595;51.218;3.452;2023-02-15T04:47:21;82.50;;;42.80;;
20870;SDS011;10595;51.218;3.452;2023-02-15T04:49:47;77.47;;;44.07;;
20870;SDS011;10595;51.218;3.452;2023-02-15T04:52:13;65.90;;;40.33;;
20870;SDS011;10595;51.218;3.452;2023-02-15T04:54:39;70.10;;;41.17;;
20870;SDS011;10595;51.218;3.452;2023-02-15T04:57:05;70.50;;;39.70;;
20870;SDS011;10595;51.218;3.452;2023-02-15T04:59:31;76.03;;;42.00;;
20870;SDS011;10595;51.218;3.452;2023-02-15T05:01:57;78.77;;;42.57;;
20870;SDS011;10595;51.218;3.452;2023-02-15T05:04:23;79.90;;;42.47;;
20870;SDS011;10595;51.218;3.452;2023-02-15T05:06:49;84.93;;;45.37;;
20870;SDS011;10595;51.218;3.452;2023-02-15T05:09:15;84.87;;;46.07;;
20870;SDS011;10595;51.218;3.452;2023-02-15T05:11:41;85.93;;;44.50;;
20870;SDS011;10595;51.218;3.452;2023-02-15T05:14:08;90.43;;;47.23;;
20870;SDS011;10595;51.218;3.452;2023-02-15T05:16:34;93.17;;;48.83;;
20870;SDS011;10595;51.218;3.452;2023-02-15T05:19:00;88.13;;;44.37;;
20870;SDS011;10595;51.218;3.452;2023-02-15T05:21:26;81.37;;;44.20;;
20870;SDS011;10595;51.218;3.452;2023-02-15T05:23:52;89.57;;;46.53;;
20870;SDS011;10595;51.218;3.452;2023-02-15T05:26:20;95.23;;;49.70;;
20870;SDS011;10595;51.218;3.452;2023-02-15T05:29:05;79.80;;;44.07;;
20870;SDS011;10595;51.218;3.452;2023-02-15T05:31:31;88.03;;;46.87;;
20870;SDS011;10595;51.218;3.452;2023-02-15T05:33:57;97.33;;;49.10;;
20870;SDS011;10595;51.218;3.452;2023-02-15T05:36:23;87.43;;;47.30;;
20870;SDS011;10595;51.218;3.452;2023-02-15T05:38:49;89.80;;;46.83;;
20870;SDS011;10595;51.218;3.452;2023-02-15T05:41:15;82.70;;;45.87;;
20870;SDS011;10595;51.218;3.452;2023-02-15T05:43:41;87.80;;;46.87;;
20870;SDS011;10595;51.218;3.452;2023-02-15T05:46:07;88.47;;;47.03;;
20870;SDS011;10595;51.218;3.452;2023-02-15T05:48:34;92.53;;;47.87;;
20870;SDS011;10595;51.218;3.452;2023-02-15T05:51:01;89.63;;;45.73;;
20870;SDS011;10595;51.218;3.452;2023-02-15T05:53:28;92.37;;;48.03;;
20870;SDS011;10595;51.218;3.452;2023-02-15T05:55:54;101.87;;;50.00;;
20870;SDS011;10595;51.218;3.452;2023-02-15T05:58:28;94.07;;;46.83;;
20870;SDS011;10595;51.218;3.452;2023-02-15T06:00:54;87.53;;;47.67;;
20870;SDS011;10595;51.218;3.452;2023-02-15T06:03:21;93.90;;;48.00;;
20870;SDS011;10595;51.218;3.452;2023-02-15T06:05:47;95.07;;;47.37;;
20870;SDS011;10595;51.218;3.452;2023-02-15T06:08:13;103.03;;;51.47;;
20870;SDS011;10595;51.218;3.452;2023-02-15T06:10:40;96.10;;;48.03;;
20870;SDS011;10595;51.218;3.452;2023-02-15T06:13:06;94.07;;;49.37;;
20870;SDS011;10595;51.218;3.452;2023-02-15T06:15:32;88.33;;;45.53;;
20870;SDS011;10595;51.218;3.452;2023-02-15T06:17:58;92.90;;;48.47;;
20870;SDS011;10595;51.218;3.452;2023-02-15T06:20:24;96.83;;;48.73;;
20870;SDS011;10595;51.218;3.452;2023-02-15T06:22:50;106.90;;;53.07;;
20870;SDS011;10595;51.218;3.452;2023-02-15T06:25:16;109.00;;;54.60;;
20870;SDS011;10595;51.218;3.452;2023-02-15T06:27:42;106.10;;;52.83;;
20870;SDS011;10595;51.218;3.452;2023-02-15T06:30:09;102.23;;;50.67;;
20870;SDS011;10595;51.218;3.452;2023-02-15T06:32:35;107.80;;;52.37;;
20870;SDS011;10595;51.218;3.452;2023-02-15T06:35:02;105.63;;;51.90;;
20870;SDS011;10595;51.218;3.452;2023-02-15T06:37:28;106.30;;;52.73;;
20870;SDS011;10595;51.218;3.452;2023-02-15T06:39:54;117.30;;;55.57;;
20870;SDS011;10595;51.218;3.452;2023-02-15T06:42:20;116.93;;;54.57;;
20870;SDS011;10595;51.218;3.452;2023-02-15T06:44:46;106.33;;;51.70;;
20870;SDS011;10595;51.218;3.452;2023-02-15T06:47:13;103.20;;;52.27;;
20870;SDS011;10595;51.218;3.452;2023-02-15T06:49:39;105.17;;;51.23;;
20870;SDS011;10595;51.218;3.452;2023-02-15T06:52:05;106.73;;;51.43;;
20870;SDS011;10595;51.218;3.452;2023-02-15T06:54:31;105.27;;;52.80;;
20870;SDS011;10595;51.218;3.452;2023-02-15T06:56:57;103.17;;;53.13;;
20870;SDS011;10595;51.218;3.452;2023-02-15T06:59:23;104.70;;;52.60;;
20870;SDS011;10595;51.218;3.452;2023-02-15T07:01:49;99.87;;;50.53;;
20870;SDS011;10595;51.218;3.452;2023-02-15T07:04:15;104.77;;;53.00;;
20870;SDS011;10595;51.218;3.452;2023-02-15T07:06:41;111.60;;;53.33;;
20870;SDS011;10595;51.218;3.452;2023-02-15T07:09:08;101.50;;;50.97;;
20870;SDS011;10595;51.218;3.452;2023-02-15T07:11:34;109.07;;;53.63;;
20870;SDS011;10595;51.218;3.452;2023-02-15T07:14:18;113.97;;;52.67;;
20870;SDS011;10595;51.218;3.452;2023-02-15T07:16:44;116.00;;;53.30;;
20870;SDS011;10595;51.218;3.452;2023-02-15T07:19:10;123.03;;;56.87;;
20870;SDS011;10595;51.218;3.452;2023-02-15T07:21:36;123.77;;;58.20;;
20870;SDS011;10595;51.218;3.452;2023-02-15T07:24:02;132.30;;;63.47;;
20870;SDS011;10595;51.218;3.452;2023-02-15T07:26:29;150.83;;;65.70;;
20870;SDS011;10595;51.218;3.452;2023-02-15T07:28:56;190.33;;;69.23;;
20870;SDS011;10595;51.218;3.452;2023-02-15T07:31:22;162.13;;;65.47;;
20870;SDS011;10595;51.218;3.452;2023-02-15T07:33:48;162.67;;;61.93;;
20870;SDS011;10595;51.218;3.452;2023-02-15T07:36:14;154.83;;;61.70;;
20870;SDS011;10595;51.218;3.452;2023-02-15T07:38:40;143.87;;;61.27;;
20870;SDS011;10595;51.218;3.452;2023-02-15T07:41:08;143.97;;;62.60;;
20870;SDS011;10595;51.218;3.452;2023-02-15T07:43:35;145.73;;;61.40;;
20870;SDS011;10595;51.218;3.452;2023-02-15T07:46:05;152.97;;;64.93;;
20870;SDS011;10595;51.218;3.452;2023-02-15T07:48:36;141.60;;;60.47;;
20870;SDS011;10595;51.218;3.452;2023-02-15T07:51:04;132.57;;;56.50;;
20870;SDS011;10595;51.218;3.452;2023-02-15T07:53:30;116.50;;;55.70;;
20870;SDS011;10595;51.218;3.452;2023-02-15T07:55:59;122.80;;;56.30;;
20870;SDS011;10595;51.218;3.452;2023-02-15T07:58:25;118.97;;;55.87;;
20870;SDS011;10595;51.218;3.452;2023-02-15T08:01:12;122.80;;;58.97;;
20870;SDS011;10595;51.218;3.452;2023-02-15T08:03:38;121.03;;;54.10;;
20870;SDS011;10595;51.218;3.452;2023-02-15T08:06:04;133.83;;;60.93;;
20870;SDS011;10595;51.218;3.452;2023-02-15T08:08:30;137.20;;;61.63;;
20870;SDS011;10595;51.218;3.452;2023-02-15T08:13:44;139.13;;;64.40;;
20870;SDS011;10595;51.218;3.452;2023-02-15T08:16:24;139.40;;;64.67;;
20870;SDS011;10595;51.218;3.452;2023-02-15T08:18:51;151.47;;;67.90;;
20870;SDS011;10595;51.218;3.452;2023-02-15T08:21:17;151.60;;;68.77;;
20870;SDS011;10595;51.218;3.452;2023-02-15T08:23:43;158.43;;;69.50;;
20870;SDS011;10595;51.218;3.452;2023-02-15T08:26:09;144.80;;;68.30;;
20870;SDS011;10595;51.218;3.452;2023-02-15T08:28:35;141.13;;;67.93;;
20870;SDS011;10595;51.218;3.452;2023-02-15T08:31:08;140.30;;;65.97;;
20870;SDS011;10595;51.218;3.452;2023-02-15T08:33:35;127.23;;;63.53;;
20870;SDS011;10595;51.218;3.452;2023-02-15T08:36:02;136.77;;;66.80;;
20870;SDS011;10595;51.218;3.452;2023-02-15T08:38:29;138.43;;;67.17;;
20870;SDS011;10595;51.218;3.452;2023-02-15T08:40:55;128.27;;;63.87;;
20870;SDS011;10595;51.218;3.452;2023-02-15T08:43:21;126.30;;;63.20;;
20870;SDS011;10595;51.218;3.452;2023-02-15T08:45:47;117.60;;;59.47;;
20870;SDS011;10595;51.218;3.452;2023-02-15T08:48:13;111.37;;;58.57;;
20870;SDS011;10595;51.218;3.452;2023-02-15T08:50:39;116.80;;;58.43;;
20870;SDS011;10595;51.218;3.452;2023-02-15T08:53:05;109.27;;;55.60;;
20870;SDS011;10595;51.218;3.452;2023-02-15T08:55:31;103.23;;;53.90;;
20870;SDS011;10595;51.218;3.452;2023-02-15T08:57:57;108.70;;;55.27;;
20870;SDS011;10595;51.218;3.452;2023-02-15T09:00:23;105.40;;;54.87;;
20870;SDS011;10595;51.218;3.452;2023-02-15T09:02:50;96.07;;;51.43;;
20870;SDS011;10595;51.218;3.452;2023-02-15T09:05:17;97.70;;;51.57;;
20870;SDS011;10595;51.218;3.452;2023-02-15T09:07:43;104.70;;;53.23;;
20870;SDS011;10595;51.218;3.452;2023-02-15T09:10:09;96.73;;;51.13;;
20870;SDS011;10595;51.218;3.452;2023-02-15T09:12:35;103.00;;;52.20;;
20870;SDS011;10595;51.218;3.452;2023-02-15T09:15:01;99.37;;;52.60;;
20870;SDS011;10595;51.218;3.452;2023-02-15T09:17:27;95.43;;;51.40;;
20870;SDS011;10595;51.218;3.452;2023-02-15T09:19:53;93.90;;;51.10;;
20870;SDS011;10595;51.218;3.452;2023-02-15T09:22:19;90.40;;;49.87;;
20870;SDS011;10595;51.218;3.452;2023-02-15T09:24:45;90.33;;;47.73;;
20870;SDS011;10595;51.218;3.452;2023-02-15T09:27:11;89.10;;;48.23;;
20870;SDS011;10595;51.218;3.452;2023-02-15T09:29:37;90.70;;;49.33;;
20870;SDS011;10595;51.218;3.452;2023-02-15T09:32:03;89.67;;;47.27;;
20870;SDS011;10595;51.218;3.452;2023-02-15T09:34:30;88.93;;;46.70;;
20870;SDS011;10595;51.218;3.452;2023-02-15T09:36:56;90.33;;;47.27;;
20870;SDS011;10595;51.218;3.452;2023-02-15T09:39:23;80.03;;;44.80;;
20870;SDS011;10595;51.218;3.452;2023-02-15T09:57:25;81.93;;;44.03;;
20870;SDS011;10595;51.218;3.452;2023-02-15T10:00:06;82.07;;;43.53;;
20870;SDS011;10595;51.218;3.452;2023-02-15T10:07:56;75.63;;;40.97;;
20870;SDS011;10595;51.218;3.452;2023-02-15T10:28:42;66.90;;;39.50;;
20870;SDS011;10595;51.218;3.452;2023-02-15T10:33:46;71.73;;;40.40;;
20870;SDS011;10595;51.218;3.452;2023-02-15T10:39:09;73.03;;;41.20;;
20870;SDS011;10595;51.218;3.452;2023-02-15T10:59:49;63.07;;;37.70;;
20870;SDS011;10595;51.218;3.452;2023-02-15T11:05:16;67.77;;;38.07;;
20870;SDS011;10595;51.218;3.452;2023-02-15T11:07:40;58.87;;;37.27;;
20870;SDS011;10595;51.218;3.452;2023-02-15T11:12:33;64.17;;;39.07;;
20870;SDS011;10595;51.218;3.452;2023-02-15T11:15:04;61.67;;;37.43;;
20870;SDS011;10595;51.218;3.452;2023-02-15T11:17:38;64.17;;;37.03;;
20870;SDS011;10595;51.218;3.452;2023-02-15T11:23:12;61.23;;;36.80;;
20870;SDS011;10595;51.218;3.452;2023-02-15T11:25:41;62.93;;;36.43;;
20870;SDS011;10595;51.218;3.452;2023-02-15T11:28:17;60.40;;;36.87;;
20870;SDS011;10595;51.218;3.452;2023-02-15T11:30:45;64.23;;;37.87;;
20870;SDS011;10595;51.218;3.452;2023-02-15T11:33:15;64.60;;;37.27;;
20870;SDS011;10595;51.218;3.452;2023-02-15T11:35:47;62.87;;;37.63;;
20870;SDS011;10595;51.218;3.452;2023-02-15T11:38:16;64.40;;;36.93;;
20870;SDS011;10595;51.218;3.452;2023-02-15T11:40:53;62.90;;;37.17;;
20870;SDS011;10595;51.218;3.452;2023-02-15T11:46:02;64.37;;;37.63;;
20870;SDS011;10595;51.218;3.452;2023-02-15T11:48:29;60.67;;;37.57;;
20870;SDS011;10595;51.218;3.452;2023-02-15T11:50:56;64.00;;;38.23;;
20870;SDS011;10595;51.218;3.452;2023-02-15T11:53:22;67.43;;;38.90;;
20870;SDS011;10595;51.218;3.452;2023-02-15T11:55:52;61.87;;;38.17;;
20870;SDS011;10595;51.218;3.452;2023-02-15T11:58:39;62.67;;;37.80;;
20870;SDS011;10595;51.218;3.452;2023-02-15T12:03:42;65.13;;;37.07;;
20870;SDS011;10595;51.218;3.452;2023-02-15T12:06:12;59.93;;;36.47;;
20870;SDS011;10595;51.218;3.452;2023-02-15T12:08:42;58.20;;;35.53;;
20870;SDS011;10595;51.218;3.452;2023-02-15T12:11:11;64.03;;;38.00;;
20870;SDS011;10595;51.218;3.452;2023-02-15T12:13:58;60.30;;;37.13;;
20870;SDS011;10595;51.218;3.452;2023-02-15T12:16:24;59.40;;;37.00;;
20870;SDS011;10595;51.218;3.452;2023-02-15T12:18:52;63.40;;;37.07;;
20870;SDS011;10595;51.218;3.452;2023-02-15T12:23:56;62.67;;;38.20;;
20870;SDS011;10595;51.218;3.452;2023-02-15T12:26:26;60.77;;;36.90;;
20870;SDS011;10595;51.218;3.452;2023-02-15T12:28:52;62.23;;;37.53;;
20870;SDS011;10595;51.218;3.452;2023-02-15T12:31:24;62.33;;;36.33;;
20870;SDS011;10595;51.218;3.452;2023-02-15T12:33:52;61.77;;;36.97;;
20870;SDS011;10595;51.218;3.452;2023-02-15T12:36:19;62.70;;;37.43;;
20870;SDS011;10595;51.218;3.452;2023-02-15T12:39:11;61.83;;;36.87;;
20870;SDS011;10595;51.218;3.452;2023-02-15T12:44:21;64.23;;;36.63;;
20870;SDS011;10595;51.218;3.452;2023-02-15T12:46:58;59.67;;;36.83;;
20870;SDS011;10595;51.218;3.452;2023-02-15T12:49:24;58.50;;;35.50;;
20870;SDS011;10595;51.218;3.452;2023-02-15T12:51:55;63.50;;;36.07;;
20870;SDS011;10595;51.218;3.452;2023-02-15T12:56:48;59.17;;;34.77;;
20870;SDS011;10595;51.218;3.452;2023-02-15T12:59:14;56.03;;;35.53;;
20870;SDS011;10595;51.218;3.452;2023-02-15T13:01:40;60.40;;;37.30;;
20870;SDS011;10595;51.218;3.452;2023-02-15T13:06:49;62.03;;;35.73;;
20870;SDS011;10595;51.218;3.452;2023-02-15T13:11:45;57.00;;;33.93;;
20870;SDS011;10595;51.218;3.452;2023-02-15T13:14:19;55.70;;;33.50;;
20870;SDS011;10595;51.218;3.452;2023-02-15T13:16:47;55.10;;;33.60;;
20870;SDS011;10595;51.218;3.452;2023-02-15T13:21:41;56.20;;;34.77;;
20870;SDS011;10595;51.218;3.452;2023-02-15T13:24:22;57.30;;;34.37;;
20870;SDS011;10595;51.218;3.452;2023-02-15T13:26:48;53.83;;;34.60;;
20870;SDS011;10595;51.218;3.452;2023-02-15T13:29:17;61.70;;;35.87;;
20870;SDS011;10595;51.218;3.452;2023-02-15T13:31:44;55.60;;;33.93;;
20870;SDS011;10595;51.218;3.452;2023-02-15T13:34:12;51.20;;;31.60;;
20870;SDS011;10595;51.218;3.452;2023-02-15T13:37:03;54.80;;;33.50;;
20870;SDS011;10595;51.218;3.452;2023-02-15T13:44:54;51.67;;;31.33;;
20870;SDS011;10595;51.218;3.452;2023-02-15T13:47:26;49.07;;;31.13;;
20870;SDS011;10595;51.218;3.452;2023-02-15T13:52:29;56.30;;;31.77;;
20870;SDS011;10595;51.218;3.452;2023-02-15T13:55:19;52.73;;;32.03;;
20870;SDS011;10595;51.218;3.452;2023-02-15T14:00:26;49.80;;;30.10;;
20870;SDS011;10595;51.218;3.452;2023-02-15T14:08:13;51.20;;;31.17;;
20870;SDS011;10595;51.218;3.452;2023-02-15T14:11:02;46.43;;;29.47;;
20870;SDS011;10595;51.218;3.452;2023-02-15T14:13:41;49.33;;;30.47;;
20870;SDS011;10595;51.218;3.452;2023-02-15T14:18:58;49.57;;;30.83;;
20870;SDS011;10595;51.218;3.452;2023-02-15T14:23:58;53.17;;;32.30;;
20870;SDS011;10595;51.218;3.452;2023-02-15T14:29:02;51.93;;;30.47;;
20870;SDS011;10595;51.218;3.452;2023-02-15T14:31:35;52.47;;;32.10;;
20870;SDS011;10595;51.218;3.452;2023-02-15T14:34:03;52.93;;;32.13;;
20870;SDS011;10595;51.218;3.452;2023-02-15T14:36:29;56.20;;;33.03;;
20870;SDS011;10595;51.218;3.452;2023-02-15T14:39:14;53.67;;;33.10;;
20870;SDS011;10595;51.218;3.452;2023-02-15T14:42:11;56.90;;;31.97;;
20870;SDS011;10595;51.218;3.452;2023-02-15T14:44:53;54.20;;;31.20;;
20870;SDS011;10595;51.218;3.452;2023-02-15T14:47:28;51.40;;;30.60;;
20870;SDS011;10595;51.218;3.452;2023-02-15T14:49:55;54.90;;;31.50;;
20870;SDS011;10595;51.218;3.452;2023-02-15T14:52:21;56.33;;;32.60;;
20870;SDS011;10595;51.218;3.452;2023-02-15T15:04:38;51.50;;;30.97;;
20870;SDS011;10595;51.218;3.452;2023-02-15T15:07:21;53.00;;;32.27;;
20870;SDS011;10595;51.218;3.452;2023-02-15T15:09:49;53.90;;;30.63;;
20870;SDS011;10595;51.218;3.452;2023-02-15T15:14:50;49.43;;;29.90;;
20870;SDS011;10595;51.218;3.452;2023-02-15T15:20:06;49.77;;;30.93;;
20870;SDS011;10595;51.218;3.452;2023-02-15T15:22:38;51.47;;;31.07;;
20870;SDS011;10595;51.218;3.452;2023-02-15T15:25:08;53.53;;;32.33;;
20870;SDS011;10595;51.218;3.452;2023-02-15T15:27:39;52.90;;;32.13;;
20870;SDS011;10595;51.218;3.452;2023-02-15T15:32:41;53.33;;;32.07;;
20870;SDS011;10595;51.218;3.452;2023-02-15T15:48:38;55.57;;;33.63;;
20870;SDS011;10595;51.218;3.452;2023-02-15T15:51:19;60.97;;;34.97;;
20870;SDS011;10595;51.218;3.452;2023-02-15T15:53:47;62.70;;;36.13;;
20870;SDS011;10595;51.218;3.452;2023-02-15T15:56:17;62.40;;;35.93;;
20870;SDS011;10595;51.218;3.452;2023-02-15T15:58:47;65.80;;;36.87;;
20870;SDS011;10595;51.218;3.452;2023-02-15T16:01:15;67.30;;;38.27;;
20870;SDS011;10595;51.218;3.452;2023-02-15T16:03:48;64.43;;;38.27;;
20870;SDS011;10595;51.218;3.452;2023-02-15T16:06:25;64.67;;;38.90;;
20870;SDS011;10595;51.218;3.452;2023-02-15T16:08:51;59.67;;;35.77;;
20870;SDS011;10595;51.218;3.452;2023-02-15T16:11:19;67.63;;;38.03;;
20870;SDS011;10595;51.218;3.452;2023-02-15T16:13:48;63.13;;;37.50;;
20870;SDS011;10595;51.218;3.452;2023-02-15T16:16:19;66.87;;;40.50;;
20870;SDS011;10595;51.218;3.452;2023-02-15T16:18:46;64.77;;;38.20;;
20870;SDS011;10595;51.218;3.452;2023-02-15T16:29:32;65.40;;;37.67;;
20870;SDS011;10595;51.218;3.452;2023-02-15T16:32:03;64.20;;;35.77;;
20870;SDS011;10595;51.218;3.452;2023-02-15T16:34:30;64.67;;;37.37;;
20870;SDS011;10595;51.218;3.452;2023-02-15T16:39:42;59.63;;;36.30;;
20870;SDS011;10595;51.218;3.452;2023-02-15T16:42:09;62.03;;;36.33;;
20870;SDS011;10595;51.218;3.452;2023-02-15T16:44:36;65.93;;;37.60;;
20870;SDS011;10595;51.218;3.452;2023-02-15T16:47:03;58.13;;;36.00;;
20870;SDS011;10595;51.218;3.452;2023-02-15T16:49:29;64.00;;;37.10;;
20870;SDS011;10595;51.218;3.452;2023-02-15T16:52:01;62.10;;;36.73;;
20870;SDS011;10595;51.218;3.452;2023-02-15T16:54:28;59.23;;;36.07;;
20870;SDS011;10595;51.218;3.452;2023-02-15T16:56:54;60.87;;;36.77;;
20870;SDS011;10595;51.218;3.452;2023-02-15T17:01:47;61.67;;;36.13;;
20870;SDS011;10595;51.218;3.452;2023-02-15T17:04:21;61.77;;;36.47;;
20870;SDS011;10595;51.218;3.452;2023-02-15T17:07:03;64.60;;;37.23;;
20870;SDS011;10595;51.218;3.452;2023-02-15T17:09:29;59.93;;;35.97;;
20870;SDS011;10595;51.218;3.452;2023-02-15T17:11:55;66.80;;;37.20;;
20870;SDS011;10595;51.218;3.452;2023-02-15T17:14:30;66.63;;;37.63;;
20870;SDS011;10595;51.218;3.452;2023-02-15T17:16:59;68.57;;;37.00;;
20870;SDS011;10595;51.218;3.452;2023-02-15T17:19:27;63.57;;;37.07;;
20870;SDS011;10595;51.218;3.452;2023-02-15T17:21:55;64.70;;;37.43;;
20870;SDS011;10595;51.218;3.452;2023-02-15T17:26:52;67.27;;;37.30;;
20870;SDS011;10595;51.218;3.452;2023-02-15T17:29:34;65.40;;;38.50;;
20870;SDS011;10595;51.218;3.452;2023-02-15T17:32:02;68.87;;;38.27;;
20870;SDS011;10595;51.218;3.452;2023-02-15T17:37:11;69.43;;;39.27;;
20870;SDS011;10595;51.218;3.452;2023-02-15T17:39:38;62.33;;;37.67;;